OINN  Noshahr Airport

Add Bookmark

Iran

Status IATA
Operational NSH
Latitude Longitude
36° 39' 47" N 51° 27' 52" E
36.663300 51.464699
Local (DST + 5) UTC (GMT + 4)
Jul 29, 2014 11:18 Jul 29, 2014 18:48
Sunrise-Sunset Local UTC
Begin Civil Twilight 05:37 01:07
Sunrise 06:06 01:36
Sunset 08:14 15:44
End Civil Twilight 08:43 16:13

Current Weather

METAR Observed VFR
OINN 291800Z VRB02KT 9999 FEW025CB SCT027 OVC080 25/20 Q1012 Tue, Jul 29, 2014 @ 18:00 UTC
(48 Minutes ago)
Visual Flight Rules

Decoded METAR

Wind Visibility Clouds Conditions
Varies at 2 knots (4 kph) 10 km or more
  • Few at 2,500' AGL
  • Scattered at 2,700' AGL
  • Overcast at 8,000' AGL
  • No significant weather
Temperatures Readings Precipitation
Current Temp 25°C (77°F)
Dewpoint 20°C (68°F)
Humidity 74%
Altimeter 29.88"Hg
Sea Level Pressure 1012mb
None Recorded

Additional weather within a 92.6km radius of OINN

Map ICAO Location
OINR 75km W (292°)

24 Hour Weather History

Loading
-

24 Hour Weather Graphs

Loading
-

CheckWX.com is intended as a tool to help pilots better visualize weather data. It is not intended as a substitute for an official weather briefing obtained from a Flight Service Station. CheckWX.com does not meet the FAA requirements for an official pre-flight weather briefing. Therefore, it's important that pilots still call and obtain an official FSS pre-flight weather briefing.